sensor_id;sensor_type;location;lat;lon;timestamp;temperature;humidity
47090;DHT22;32840;52.516;13.294;2023-10-08T00:00:32;13.30;99.90
47090;DHT22;32840;52.516;13.294;2023-10-08T00:03:32;13.30;99.90
47090;DHT22;32840;52.516;13.294;2023-10-08T00:06:19;13.20;99.90
47090;DHT22;32840;52.516;13.294;2023-10-08T00:09:05;13.20;99.90
47090;DHT22;32840;52.516;13.294;2023-10-08T00:11:54;13.20;99.90
47090;DHT22;32840;52.516;13.294;2023-10-08T00:14:41;13.30;99.90
47090;DHT22;32840;52.516;13.294;2023-10-08T00:17:29;13.30;99.90
47090;DHT22;32840;52.516;13.294;2023-10-08T00:20:14;13.20;99.90
47090;DHT22;32840;52.516;13.294;2023-10-08T00:23:09;13.20;99.90
47090;DHT22;32840;52.516;13.294;2023-10-08T00:25:55;13.20;99.90
47090;DHT22;32840;52.516;13.294;2023-10-08T00:28:40;13.20;99.90
47090;DHT22;32840;52.516;13.294;2023-10-08T00:31:27;13.20;99.90
47090;DHT22;32840;52.516;13.294;2023-10-08T00:34:19;13.20;99.90
47090;DHT22;32840;52.516;13.294;2023-10-08T00:37:04;13.20;99.90
47090;DHT22;32840;52.516;13.294;2023-10-08T00:39:54;13.20;99.90
47090;DHT22;32840;52.516;13.294;2023-10-08T00:42:41;13.20;99.90
47090;DHT22;32840;52.516;13.294;2023-10-08T00:45:30;13.20;99.90
47090;DHT22;32840;52.516;13.294;2023-10-08T00:48:15;13.20;99.90
47090;DHT22;32840;52.516;13.294;2023-10-08T00:51:06;13.10;99.90
47090;DHT22;32840;52.516;13.294;2023-10-08T00:54:12;13.10;99.90
47090;DHT22;32840;52.516;13.294;2023-10-08T00:57:02;13.10;99.90
47090;DHT22;32840;52.516;13.294;2023-10-08T01:00:07;13.10;99.90
47090;DHT22;32840;52.516;13.294;2023-10-08T01:03:01;13.00;99.90
47090;DHT22;32840;52.516;13.294;2023-10-08T01:05:46;13.10;99.90
47090;DHT22;32840;52.516;13.294;2023-10-08T01:08:32;13.10;99.90
47090;DHT22;32840;52.516;13.294;2023-10-08T01:11:24;13.00;99.90
47090;DHT22;32840;52.516;13.294;2023-10-08T01:14:16;13.00;99.90
47090;DHT22;32840;52.516;13.294;2023-10-08T01:17:10;13.20;99.90
47090;DHT22;32840;52.516;13.294;2023-10-08T01:20:02;13.10;99.90
47090;DHT22;32840;52.516;13.294;2023-10-08T01:23:14;13.10;99.90
47090;DHT22;32840;52.516;13.294;2023-10-08T01:26:01;13.10;99.90
47090;DHT22;32840;52.516;13.294;2023-10-08T01:28:56;13.00;99.90
47090;DHT22;32840;52.516;13.294;2023-10-08T01:31:41;13.00;99.90
47090;DHT22;32840;52.516;13.294;2023-10-08T01:34:25;12.90;99.90
47090;DHT22;32840;52.516;13.294;2023-10-08T01:37:17;13.00;99.90
47090;DHT22;32840;52.516;13.294;2023-10-08T01:40:02;13.00;99.90
47090;DHT22;32840;52.516;13.294;2023-10-08T01:42:51;12.90;99.90
47090;DHT22;32840;52.516;13.294;2023-10-08T01:45:37;12.90;99.90
47090;DHT22;32840;52.516;13.294;2023-10-08T01:48:25;12.90;99.90
47090;DHT22;32840;52.516;13.294;2023-10-08T01:51:15;12.90;99.90
47090;DHT22;32840;52.516;13.294;2023-10-08T01:54:09;12.80;99.90
47090;DHT22;32840;52.516;13.294;2023-10-08T01:56:56;12.80;99.90
47090;DHT22;32840;52.516;13.294;2023-10-08T01:59:41;12.80;99.90
47090;DHT22;32840;52.516;13.294;2023-10-08T02:02:26;12.80;99.90
47090;DHT22;32840;52.516;13.294;2023-10-08T02:05:11;12.80;99.90
47090;DHT22;32840;52.516;13.294;2023-10-08T02:07:59;12.80;99.90
47090;DHT22;32840;52.516;13.294;2023-10-08T02:10:44;12.90;99.90
47090;DHT22;32840;52.516;13.294;2023-10-08T02:13:31;12.90;99.90
47090;DHT22;32840;52.516;13.294;2023-10-08T02:16:20;12.90;99.90
47090;DHT22;32840;52.516;13.294;2023-10-08T02:19:07;13.00;99.90
47090;DHT22;32840;52.516;13.294;2023-10-08T02:21:56;12.90;99.90
47090;DHT22;32840;52.516;13.294;2023-10-08T02:24:42;12.80;99.90
47090;DHT22;32840;52.516;13.294;2023-10-08T02:27:28;12.90;99.90
47090;DHT22;32840;52.516;13.294;2023-10-08T02:30:13;12.90;99.90
47090;DHT22;32840;52.516;13.294;2023-10-08T02:32:58;12.90;99.90
47090;DHT22;32840;52.516;13.294;2023-10-08T02:35:43;12.90;99.90
47090;DHT22;32840;52.516;13.294;2023-10-08T02:38:30;12.90;99.90
47090;DHT22;32840;52.516;13.294;2023-10-08T02:41:23;12.80;99.90
47090;DHT22;32840;52.516;13.294;2023-10-08T02:44:09;12.80;99.90
47090;DHT22;32840;52.516;13.294;2023-10-08T02:46:57;12.80;99.90
47090;DHT22;32840;52.516;13.294;2023-10-08T02:49:42;12.80;99.90
47090;DHT22;32840;52.516;13.294;2023-10-08T02:52:27;12.80;99.90
47090;DHT22;32840;52.516;13.294;2023-10-08T02:55:12;12.90;99.90
47090;DHT22;32840;52.516;13.294;2023-10-08T02:58:19;12.80;99.90
47090;DHT22;32840;52.516;13.294;2023-10-08T03:01:07;12.80;99.90
47090;DHT22;32840;52.516;13.294;2023-10-08T03:03:53;12.80;99.90
47090;DHT22;32840;52.516;13.294;2023-10-08T03:06:49;12.80;99.90
47090;DHT22;32840;52.516;13.294;2023-10-08T03:09:37;12.90;99.90
47090;DHT22;32840;52.516;13.294;2023-10-08T03:15:22;12.90;99.90
47090;DHT22;32840;52.516;13.294;2023-10-08T03:18:14;12.90;99.90
47090;DHT22;32840;52.516;13.294;2023-10-08T03:21:09;12.90;99.90
47090;DHT22;32840;52.516;13.294;2023-10-08T03:24:07;12.80;99.90
47090;DHT22;32840;52.516;13.294;2023-10-08T03:26:58;12.90;99.90
47090;DHT22;32840;52.516;13.294;2023-10-08T03:30:00;12.90;99.90
47090;DHT22;32840;52.516;13.294;2023-10-08T03:32:46;12.90;99.90
47090;DHT22;32840;52.516;13.294;2023-10-08T03:35:39;12.80;99.90
47090;DHT22;32840;52.516;13.294;2023-10-08T03:38:28;12.80;99.90
47090;DHT22;32840;52.516;13.294;2023-10-08T03:41:13;12.80;99.90
47090;DHT22;32840;52.516;13.294;2023-10-08T03:44:03;12.80;99.90
47090;DHT22;32840;52.516;13.294;2023-10-08T03:46:57;12.80;99.90
47090;DHT22;32840;52.516;13.294;2023-10-08T03:49:41;12.80;99.90
47090;DHT22;32840;52.516;13.294;2023-10-08T03:52:30;12.80;99.90
47090;DHT22;32840;52.516;13.294;2023-10-08T03:55:15;12.80;99.90
47090;DHT22;32840;52.516;13.294;2023-10-08T03:58:02;12.80;99.90
47090;DHT22;32840;52.516;13.294;2023-10-08T04:00:49;12.80;99.90
47090;DHT22;32840;52.516;13.294;2023-10-08T04:03:35;12.80;99.90
47090;DHT22;32840;52.516;13.294;2023-10-08T04:06:50;12.80;99.90
47090;DHT22;32840;52.516;13.294;2023-10-08T04:09:39;12.80;99.90
47090;DHT22;32840;52.516;13.294;2023-10-08T04:12:24;12.80;99.90
47090;DHT22;32840;52.516;13.294;2023-10-08T04:15:12;12.90;99.90
47090;DHT22;32840;52.516;13.294;2023-10-08T04:17:59;12.90;99.90
47090;DHT22;32840;52.516;13.294;2023-10-08T04:20:47;12.90;99.90
47090;DHT22;32840;52.516;13.294;2023-10-08T04:23:45;12.90;99.90
47090;DHT22;32840;52.516;13.294;2023-10-08T04:26:42;12.80;99.90
47090;DHT22;32840;52.516;13.294;2023-10-08T04:29:29;12.80;99.90
47090;DHT22;32840;52.516;13.294;2023-10-08T04:32:18;12.70;99.90
47090;DHT22;32840;52.516;13.294;2023-10-08T04:35:09;12.70;99.90
47090;DHT22;32840;52.516;13.294;2023-10-08T04:37:59;12.70;99.90
47090;DHT22;32840;52.516;13.294;2023-10-08T04:40:45;12.70;99.90
47090;DHT22;32840;52.516;13.294;2023-10-08T04:43:33;12.60;99.90
47090;DHT22;32840;52.516;13.294;2023-10-08T04:46:22;12.60;99.90
47090;DHT22;32840;52.516;13.294;2023-10-08T04:49:31;12.70;99.90
47090;DHT22;32840;52.516;13.294;2023-10-08T04:52:20;12.60;99.90
47090;DHT22;32840;52.516;13.294;2023-10-08T04:55:10;12.60;99.90
47090;DHT22;32840;52.516;13.294;2023-10-08T04:58:02;12.50;99.90
47090;DHT22;32840;52.516;13.294;2023-10-08T05:00:57;12.50;99.90
47090;DHT22;32840;52.516;13.294;2023-10-08T05:03:52;12.50;99.90
47090;DHT22;32840;52.516;13.294;2023-10-08T05:06:42;12.40;99.90
47090;DHT22;32840;52.516;13.294;2023-10-08T05:09:30;12.40;99.90
47090;DHT22;32840;52.516;13.294;2023-10-08T05:12:31;12.30;99.90
47090;DHT22;32840;52.516;13.294;2023-10-08T05:15:34;12.20;99.90
47090;DHT22;32840;52.516;13.294;2023-10-08T05:18:26;12.20;99.90
47090;DHT22;32840;52.516;13.294;2023-10-08T05:21:30;12.20;99.90
47090;DHT22;32840;52.516;13.294;2023-10-08T05:24:36;12.20;99.90
47090;DHT22;32840;52.516;13.294;2023-10-08T05:27:25;12.20;99.90
47090;DHT22;32840;52.516;13.294;2023-10-08T05:30:28;12.20;99.90
47090;DHT22;32840;52.516;13.294;2023-10-08T05:33:27;12.20;99.90
47090;DHT22;32840;52.516;13.294;2023-10-08T05:36:34;12.10;99.90
47090;DHT22;32840;52.516;13.294;2023-10-08T05:39:35;12.20;99.90
47090;DHT22;32840;52.516;13.294;2023-10-08T05:42:23;12.20;99.90
47090;DHT22;32840;52.516;13.294;2023-10-08T05:45:13;12.20;99.90
47090;DHT22;32840;52.516;13.294;2023-10-08T05:48:14;12.30;99.90
47090;DHT22;32840;52.516;13.294;2023-10-08T05:51:06;12.30;99.90
47090;DHT22;32840;52.516;13.294;2023-10-08T05:53:57;12.20;99.90
47090;DHT22;32840;52.516;13.294;2023-10-08T05:56:45;12.10;99.90
47090;DHT22;32840;52.516;13.294;2023-10-08T05:59:50;12.20;99.90
47090;DHT22;32840;52.516;13.294;2023-10-08T06:02:43;12.20;99.90
47090;DHT22;32840;52.516;13.294;2023-10-08T06:05:30;12.20;99.90
47090;DHT22;32840;52.516;13.294;2023-10-08T06:08:30;12.20;99.90
47090;DHT22;32840;52.516;13.294;2023-10-08T06:11:34;12.20;99.90
47090;DHT22;32840;52.516;13.294;2023-10-08T06:14:28;12.20;99.90
47090;DHT22;32840;52.516;13.294;2023-10-08T06:17:34;12.20;99.90
47090;DHT22;32840;52.516;13.294;2023-10-08T06:20:28;12.20;99.90
47090;DHT22;32840;52.516;13.294;2023-10-08T06:23:17;12.30;99.90
47090;DHT22;32840;52.516;13.294;2023-10-08T06:26:06;12.30;99.90
47090;DHT22;32840;52.516;13.294;2023-10-08T06:28:58;12.30;99.90
47090;DHT22;32840;52.516;13.294;2023-10-08T06:31:43;12.30;99.90
47090;DHT22;32840;52.516;13.294;2023-10-08T06:34:37;12.30;99.90
47090;DHT22;32840;52.516;13.294;2023-10-08T06:37:34;12.30;99.90
47090;DHT22;32840;52.516;13.294;2023-10-08T06:40:20;12.30;99.90
47090;DHT22;32840;52.516;13.294;2023-10-08T06:43:23;12.20;99.90
47090;DHT22;32840;52.516;13.294;2023-10-08T06:46:10;12.30;99.90
47090;DHT22;32840;52.516;13.294;2023-10-08T06:48:58;12.30;99.90
47090;DHT22;32840;52.516;13.294;2023-10-08T06:51:43;12.40;99.90
47090;DHT22;32840;52.516;13.294;2023-10-08T06:54:36;12.50;99.90
47090;DHT22;32840;52.516;13.294;2023-10-08T06:57:25;12.50;99.90
47090;DHT22;32840;52.516;13.294;2023-10-08T07:00:17;12.50;99.90
47090;DHT22;32840;52.516;13.294;2023-10-08T07:03:22;12.50;99.90
47090;DHT22;32840;52.516;13.294;2023-10-08T07:06:18;12.60;99.90
47090;DHT22;32840;52.516;13.294;2023-10-08T07:09:19;12.70;99.90
47090;DHT22;32840;52.516;13.294;2023-10-08T07:12:07;12.70;99.90
47090;DHT22;32840;52.516;13.294;2023-10-08T07:14:58;12.60;99.90
47090;DHT22;32840;52.516;13.294;2023-10-08T07:17:44;12.70;99.90
47090;DHT22;32840;52.516;13.294;2023-10-08T07:20:29;12.70;99.90
47090;DHT22;32840;52.516;13.294;2023-10-08T07:23:20;12.60;99.90
47090;DHT22;32840;52.516;13.294;2023-10-08T07:26:09;12.50;99.90
47090;DHT22;32840;52.516;13.294;2023-10-08T07:28:57;12.70;99.90
47090;DHT22;32840;52.516;13.294;2023-10-08T07:31:46;12.80;99.90
47090;DHT22;32840;52.516;13.294;2023-10-08T07:34:40;12.70;99.90
47090;DHT22;32840;52.516;13.294;2023-10-08T07:37:25;12.60;99.90
47090;DHT22;32840;52.516;13.294;2023-10-08T07:40:13;12.60;99.90
47090;DHT22;32840;52.516;13.294;2023-10-08T07:42:58;12.70;99.90
47090;DHT22;32840;52.516;13.294;2023-10-08T07:45:53;12.60;99.90
47090;DHT22;32840;52.516;13.294;2023-10-08T07:48:41;12.60;99.90
47090;DHT22;32840;52.516;13.294;2023-10-08T07:51:29;12.60;99.90
47090;DHT22;32840;52.516;13.294;2023-10-08T07:54:28;12.70;99.90
47090;DHT22;32840;52.516;13.294;2023-10-08T07:57:27;12.60;99.90
47090;DHT22;32840;52.516;13.294;2023-10-08T08:00:14;12.70;99.90
47090;DHT22;32840;52.516;13.294;2023-10-08T08:03:11;12.70;99.90
47090;DHT22;32840;52.516;13.294;2023-10-08T08:05:57;12.70;99.90
47090;DHT22;32840;52.516;13.294;2023-10-08T08:08:53;12.70;99.90
47090;DHT22;32840;52.516;13.294;2023-10-08T08:11:42;12.70;99.90
47090;DHT22;32840;52.516;13.294;2023-10-08T08:14:33;12.80;99.90
47090;DHT22;32840;52.516;13.294;2023-10-08T08:17:20;12.90;99.90
47090;DHT22;32840;52.516;13.294;2023-10-08T08:20:07;13.10;99.90
47090;DHT22;32840;52.516;13.294;2023-10-08T08:23:19;13.50;99.90
47090;DHT22;32840;52.516;13.294;2023-10-08T08:26:07;13.70;99.90
47090;DHT22;32840;52.516;13.294;2023-10-08T08:29:01;13.80;99.90
47090;DHT22;32840;52.516;13.294;2023-10-08T08:31:47;13.90;99.90
47090;DHT22;32840;52.516;13.294;2023-10-08T08:34:35;13.90;99.90
47090;DHT22;32840;52.516;13.294;2023-10-08T08:37:20;14.20;99.90
47090;DHT22;32840;52.516;13.294;2023-10-08T08:40:10;14.30;99.90
47090;DHT22;32840;52.516;13.294;2023-10-08T08:43:05;14.50;99.90
47090;DHT22;32840;52.516;13.294;2023-10-08T08:45:51;14.60;99.90
47090;DHT22;32840;52.516;13.294;2023-10-08T08:48:40;14.70;99.90
47090;DHT22;32840;52.516;13.294;2023-10-08T08:51:28;14.60;99.90
47090;DHT22;32840;52.516;13.294;2023-10-08T08:54:14;14.70;99.90
47090;DHT22;32840;52.516;13.294;2023-10-08T08:57:10;14.60;99.90
47090;DHT22;32840;52.516;13.294;2023-10-08T08:59:59;14.70;99.90
47090;DHT22;32840;52.516;13.294;2023-10-08T09:02:45;14.70;99.90
47090;DHT22;32840;52.516;13.294;2023-10-08T09:05:33;14.60;99.90
47090;DHT22;32840;52.516;13.294;2023-10-08T09:08:19;14.60;99.90
47090;DHT22;32840;52.516;13.294;2023-10-08T09:11:07;14.60;99.90
47090;DHT22;32840;52.516;13.294;2023-10-08T09:13:53;14.50;99.90
47090;DHT22;32840;52.516;13.294;2023-10-08T09:16:39;14.40;99.90
47090;DHT22;32840;52.516;13.294;2023-10-08T09:19:24;14.40;99.90
47090;DHT22;32840;52.516;13.294;2023-10-08T09:22:11;14.40;99.90
47090;DHT22;32840;52.516;13.294;2023-10-08T09:24:59;14.40;99.90
47090;DHT22;32840;52.516;13.294;2023-10-08T09:27:51;14.50;99.90
47090;DHT22;32840;52.516;13.294;2023-10-08T09:30:40;14.50;99.90
47090;DHT22;32840;52.516;13.294;2023-10-08T09:33:28;14.50;99.90
47090;DHT22;32840;52.516;13.294;2023-10-08T09:36:13;14.50;99.90
47090;DHT22;32840;52.516;13.294;2023-10-08T09:39:04;14.50;99.90
47090;DHT22;32840;52.516;13.294;2023-10-08T09:41:53;14.50;99.90
47090;DHT22;32840;52.516;13.294;2023-10-08T09:44:40;14.40;99.90
47090;DHT22;32840;52.516;13.294;2023-10-08T09:47:56;14.40;99.90
47090;DHT22;32840;52.516;13.294;2023-10-08T09:50:41;14.50;99.90
47090;DHT22;32840;52.516;13.294;2023-10-08T09:56:46;14.50;96.10
47090;DHT22;32840;52.516;13.294;2023-10-08T09:59:33;14.60;96.60
47090;DHT22;32840;52.516;13.294;2023-10-08T10:02:19;14.70;98.30
47090;DHT22;32840;52.516;13.294;2023-10-08T10:05:10;14.70;97.00
47090;DHT22;32840;52.516;13.294;2023-10-08T10:07:57;14.70;94.90
47090;DHT22;32840;52.516;13.294;2023-10-08T10:10:43;14.70;94.60
47090;DHT22;32840;52.516;13.294;2023-10-08T10:13:42;14.70;95.70
47090;DHT22;32840;52.516;13.294;2023-10-08T10:16:35;14.80;93.10
47090;DHT22;32840;52.516;13.294;2023-10-08T10:19:20;14.80;92.50
47090;DHT22;32840;52.516;13.294;2023-10-08T10:22:10;14.90;92.60
47090;DHT22;32840;52.516;13.294;2023-10-08T10:25:02;14.90;92.40
47090;DHT22;32840;52.516;13.294;2023-10-08T10:28:22;14.90;91.50
47090;DHT22;32840;52.516;13.294;2023-10-08T10:31:19;14.90;92.30
47090;DHT22;32840;52.516;13.294;2023-10-08T10:34:22;14.90;93.50
47090;DHT22;32840;52.516;13.294;2023-10-08T10:37:09;14.80;93.80
47090;DHT22;32840;52.516;13.294;2023-10-08T10:39:55;14.80;93.50
47090;DHT22;32840;52.516;13.294;2023-10-08T10:42:47;14.80;92.70
47090;DHT22;32840;52.516;13.294;2023-10-08T10:45:37;14.80;92.50
47090;DHT22;32840;52.516;13.294;2023-10-08T10:48:27;14.90;90.50
47090;DHT22;32840;52.516;13.294;2023-10-08T10:51:19;14.80;90.40
47090;DHT22;32840;52.516;13.294;2023-10-08T10:54:09;14.80;84.40
47090;DHT22;32840;52.516;13.294;2023-10-08T10:57:06;14.80;82.10
47090;DHT22;32840;52.516;13.294;2023-10-08T11:00:03;14.90;84.80
47090;DHT22;32840;52.516;13.294;2023-10-08T11:03:10;15.00;82.10
47090;DHT22;32840;52.516;13.294;2023-10-08T11:06:01;15.00;83.40
47090;DHT22;32840;52.516;13.294;2023-10-08T11:08:53;15.00;84.80
47090;DHT22;32840;52.516;13.294;2023-10-08T11:11:38;15.00;81.50
47090;DHT22;32840;52.516;13.294;2023-10-08T11:14:28;15.10;85.00
47090;DHT22;32840;52.516;13.294;2023-10-08T11:17:18;15.10;82.40
47090;DHT22;32840;52.516;13.294;2023-10-08T11:23:32;15.20;82.10
47090;DHT22;32840;52.516;13.294;2023-10-08T11:26:37;15.10;80.70
47090;DHT22;32840;52.516;13.294;2023-10-08T11:29:39;15.20;83.40
47090;DHT22;32840;52.516;13.294;2023-10-08T11:32:26;15.30;79.60
47090;DHT22;32840;52.516;13.294;2023-10-08T11:35:15;15.30;76.80
47090;DHT22;32840;52.516;13.294;2023-10-08T11:38:00;15.20;77.80
47090;DHT22;32840;52.516;13.294;2023-10-08T11:40:49;15.20;75.50
47090;DHT22;32840;52.516;13.294;2023-10-08T11:43:37;15.20;76.50
47090;DHT22;32840;52.516;13.294;2023-10-08T11:46:29;15.30;78.80
47090;DHT22;32840;52.516;13.294;2023-10-08T11:49:23;15.40;76.70
47090;DHT22;32840;52.516;13.294;2023-10-08T11:52:15;15.30;73.90
47090;DHT22;32840;52.516;13.294;2023-10-08T11:55:01;15.40;76.10
47090;DHT22;32840;52.516;13.294;2023-10-08T11:57:49;15.40;78.20
47090;DHT22;32840;52.516;13.294;2023-10-08T12:00:40;15.40;75.30
47090;DHT22;32840;52.516;13.294;2023-10-08T12:03:29;15.50;74.30
47090;DHT22;32840;52.516;13.294;2023-10-08T12:06:16;15.50;75.50
47090;DHT22;32840;52.516;13.294;2023-10-08T12:09:03;15.60;74.00
47090;DHT22;32840;52.516;13.294;2023-10-08T12:11:56;15.60;73.40
47090;DHT22;32840;52.516;13.294;2023-10-08T12:14:42;15.70;75.50
47090;DHT22;32840;52.516;13.294;2023-10-08T12:17:48;15.80;76.00
47090;DHT22;32840;52.516;13.294;2023-10-08T12:20:54;15.80;75.20
47090;DHT22;32840;52.516;13.294;2023-10-08T12:23:39;15.60;74.40
47090;DHT22;32840;52.516;13.294;2023-10-08T12:26:25;15.50;74.40
47090;DHT22;32840;52.516;13.294;2023-10-08T12:29:10;15.40;73.50
47090;DHT22;32840;52.516;13.294;2023-10-08T12:31:55;15.40;76.40
47090;DHT22;32840;52.516;13.294;2023-10-08T12:34:39;15.40;76.10
47090;DHT22;32840;52.516;13.294;2023-10-08T12:37:26;15.50;77.20
47090;DHT22;32840;52.516;13.294;2023-10-08T12:40:14;15.50;75.70
47090;DHT22;32840;52.516;13.294;2023-10-08T12:43:09;15.50;73.50
47090;DHT22;32840;52.516;13.294;2023-10-08T12:45:54;15.50;75.60
47090;DHT22;32840;52.516;13.294;2023-10-08T12:48:40;15.50;75.60
47090;DHT22;32840;52.516;13.294;2023-10-08T12:51:25;15.60;77.50
47090;DHT22;32840;52.516;13.294;2023-10-08T12:54:11;15.70;75.90
47090;DHT22;32840;52.516;13.294;2023-10-08T12:56:58;15.80;75.20
47090;DHT22;32840;52.516;13.294;2023-10-08T12:59:43;15.90;77.10
47090;DHT22;32840;52.516;13.294;2023-10-08T13:02:33;16.00;76.30
47090;DHT22;32840;52.516;13.294;2023-10-08T13:05:24;15.90;71.40
47090;DHT22;32840;52.516;13.294;2023-10-08T13:08:12;15.80;70.50
47090;DHT22;32840;52.516;13.294;2023-10-08T13:10:59;15.80;72.90
47090;DHT22;32840;52.516;13.294;2023-10-08T13:13:50;15.80;74.30
47090;DHT22;32840;52.516;13.294;2023-10-08T13:16:35;15.80;73.90
47090;DHT22;32840;52.516;13.294;2023-10-08T13:19:22;15.80;73.80
47090;DHT22;32840;52.516;13.294;2023-10-08T13:22:12;15.70;73.40
47090;DHT22;32840;52.516;13.294;2023-10-08T13:25:04;15.70;74.00
47090;DHT22;32840;52.516;13.294;2023-10-08T13:27:49;15.70;73.80
47090;DHT22;32840;52.516;13.294;2023-10-08T13:30:34;15.60;75.20
47090;DHT22;32840;52.516;13.294;2023-10-08T13:33:22;15.50;74.90
47090;DHT22;32840;52.516;13.294;2023-10-08T13:36:07;15.50;76.90
47090;DHT22;32840;52.516;13.294;2023-10-08T13:38:53;15.50;77.40
47090;DHT22;32840;52.516;13.294;2023-10-08T13:41:42;15.50;77.70
47090;DHT22;32840;52.516;13.294;2023-10-08T13:44:33;15.50;74.60
47090;DHT22;32840;52.516;13.294;2023-10-08T13:47:20;15.50;75.60
47090;DHT22;32840;52.516;13.294;2023-10-08T13:50:09;15.50;74.60
47090;DHT22;32840;52.516;13.294;2023-10-08T13:52:57;15.40;73.40
47090;DHT22;32840;52.516;13.294;2023-10-08T13:55:42;15.40;73.40
47090;DHT22;32840;52.516;13.294;2023-10-08T13:58:33;15.50;74.60
47090;DHT22;32840;52.516;13.294;2023-10-08T14:01:25;15.40;75.20
47090;DHT22;32840;52.516;13.294;2023-10-08T14:04:10;15.50;74.20
47090;DHT22;32840;52.516;13.294;2023-10-08T14:06:55;15.50;74.70
47090;DHT22;32840;52.516;13.294;2023-10-08T14:09:43;15.50;74.80
47090;DHT22;32840;52.516;13.294;2023-10-08T14:12:30;15.40;76.30
47090;DHT22;32840;52.516;13.294;2023-10-08T14:15:17;15.40;75.80
47090;DHT22;32840;52.516;13.294;2023-10-08T14:18:03;15.40;75.90
47090;DHT22;32840;52.516;13.294;2023-10-08T14:20:52;15.30;76.50
47090;DHT22;32840;52.516;13.294;2023-10-08T14:23:38;15.30;76.80
47090;DHT22;32840;52.516;13.294;2023-10-08T14:26:24;15.30;75.80
47090;DHT22;32840;52.516;13.294;2023-10-08T14:29:12;15.30;76.70
47090;DHT22;32840;52.516;13.294;2023-10-08T14:31:59;15.30;75.90
47090;DHT22;32840;52.516;13.294;2023-10-08T14:34:44;15.20;75.40
47090;DHT22;32840;52.516;13.294;2023-10-08T14:37:33;15.10;75.30
47090;DHT22;32840;52.516;13.294;2023-10-08T14:40:53;15.10;76.30
47090;DHT22;32840;52.516;13.294;2023-10-08T14:43:57;15.00;76.90
47090;DHT22;32840;52.516;13.294;2023-10-08T14:46:45;14.90;78.40
47090;DHT22;32840;52.516;13.294;2023-10-08T14:49:30;14.80;79.10
47090;DHT22;32840;52.516;13.294;2023-10-08T14:52:19;14.80;79.60
47090;DHT22;32840;52.516;13.294;2023-10-08T14:55:04;14.80;79.40
47090;DHT22;32840;52.516;13.294;2023-10-08T14:57:49;14.70;80.90
47090;DHT22;32840;52.516;13.294;2023-10-08T15:00:40;14.70;82.10
47090;DHT22;32840;52.516;13.294;2023-10-08T15:03:26;14.70;82.80
47090;DHT22;32840;52.516;13.294;2023-10-08T15:06:13;14.70;81.90
47090;DHT22;32840;52.516;13.294;2023-10-08T15:09:04;14.70;81.20
47090;DHT22;32840;52.516;13.294;2023-10-08T15:11:55;14.70;80.20
47090;DHT22;32840;52.516;13.294;2023-10-08T15:14:48;14.70;78.80
47090;DHT22;32840;52.516;13.294;2023-10-08T15:17:35;14.70;79.10
47090;DHT22;32840;52.516;13.294;2023-10-08T15:20:20;14.70;78.70
47090;DHT22;32840;52.516;13.294;2023-10-08T15:23:04;14.80;77.50
47090;DHT22;32840;52.516;13.294;2023-10-08T15:25:49;14.70;78.10
47090;DHT22;32840;52.516;13.294;2023-10-08T15:28:38;14.70;78.30
47090;DHT22;32840;52.516;13.294;2023-10-08T15:31:24;14.70;79.40
47090;DHT22;32840;52.516;13.294;2023-10-08T15:34:10;14.70;80.30
47090;DHT22;32840;52.516;13.294;2023-10-08T15:36:56;14.70;80.10
47090;DHT22;32840;52.516;13.294;2023-10-08T15:39:43;14.70;80.30
47090;DHT22;32840;52.516;13.294;2023-10-08T15:42:35;14.60;80.50
47090;DHT22;32840;52.516;13.294;2023-10-08T15:45:22;14.60;81.50
47090;DHT22;32840;52.516;13.294;2023-10-08T15:48:07;14.60;82.10
47090;DHT22;32840;52.516;13.294;2023-10-08T15:50:52;14.60;82.20
47090;DHT22;32840;52.516;13.294;2023-10-08T15:53:37;14.60;82.20
47090;DHT22;32840;52.516;13.294;2023-10-08T15:56:23;14.60;82.40
47090;DHT22;32840;52.516;13.294;2023-10-08T15:59:10;14.50;82.30
47090;DHT22;32840;52.516;13.294;2023-10-08T16:01:55;14.60;83.50
47090;DHT22;32840;52.516;13.294;2023-10-08T16:04:41;14.60;83.90
47090;DHT22;32840;52.516;13.294;2023-10-08T16:07:25;14.60;85.70
47090;DHT22;32840;52.516;13.294;2023-10-08T16:10:10;14.50;84.90
47090;DHT22;32840;52.516;13.294;2023-10-08T16:12:55;14.50;85.60
47090;DHT22;32840;52.516;13.294;2023-10-08T16:15:41;14.50;86.00
47090;DHT22;32840;52.516;13.294;2023-10-08T16:18:27;14.40;86.30
47090;DHT22;32840;52.516;13.294;2023-10-08T16:21:12;14.50;87.10
47090;DHT22;32840;52.516;13.294;2023-10-08T16:23:59;14.50;87.00
47090;DHT22;32840;52.516;13.294;2023-10-08T16:26:45;14.40;87.20
47090;DHT22;32840;52.516;13.294;2023-10-08T16:29:30;14.40;87.60
47090;DHT22;32840;52.516;13.294;2023-10-08T16:32:20;14.40;88.00
47090;DHT22;32840;52.516;13.294;2023-10-08T16:35:11;14.40;87.60
47090;DHT22;32840;52.516;13.294;2023-10-08T16:37:57;14.40;87.40
47090;DHT22;32840;52.516;13.294;2023-10-08T16:40:42;14.40;87.70
47090;DHT22;32840;52.516;13.294;2023-10-08T16:43:28;14.40;87.80
47090;DHT22;32840;52.516;13.294;2023-10-08T16:46:15;14.40;88.10
47090;DHT22;32840;52.516;13.294;2023-10-08T16:48:59;14.30;88.30
47090;DHT22;32840;52.516;13.294;2023-10-08T16:51:44;14.30;89.20
47090;DHT22;32840;52.516;13.294;2023-10-08T16:54:30;14.30;90.20
47090;DHT22;32840;52.516;13.294;2023-10-08T16:57:15;14.30;90.10
47090;DHT22;32840;52.516;13.294;2023-10-08T17:00:02;14.30;90.00
47090;DHT22;32840;52.516;13.294;2023-10-08T17:02:56;14.30;89.70
47090;DHT22;32840;52.516;13.294;2023-10-08T17:05:44;14.30;90.00
47090;DHT22;32840;52.516;13.294;2023-10-08T17:08:29;14.20;90.40
47090;DHT22;32840;52.516;13.294;2023-10-08T17:11:15;14.20;90.50
47090;DHT22;32840;52.516;13.294;2023-10-08T17:14:00;14.20;90.60
47090;DHT22;32840;52.516;13.294;2023-10-08T17:16:45;14.20;90.70
47090;DHT22;32840;52.516;13.294;2023-10-08T17:19:31;14.20;90.60
47090;DHT22;32840;52.516;13.294;2023-10-08T17:22:16;14.20;90.40
47090;DHT22;32840;52.516;13.294;2023-10-08T17:25:02;14.20;90.40
47090;DHT22;32840;52.516;13.294;2023-10-08T17:27:50;14.20;91.00
47090;DHT22;32840;52.516;13.294;2023-10-08T17:30:35;14.10;91.40
47090;DHT22;32840;52.516;13.294;2023-10-08T17:33:23;14.10;91.30
47090;DHT22;32840;52.516;13.294;2023-10-08T17:36:08;14.10;91.90
47090;DHT22;32840;52.516;13.294;2023-10-08T17:38:53;14.10;91.80
47090;DHT22;32840;52.516;13.294;2023-10-08T17:41:38;14.10;91.90
47090;DHT22;32840;52.516;13.294;2023-10-08T17:44:23;14.20;91.80